Time;durP1;ratioP1;P1;durP2;ratioP2;P2;SDS_P1;SDS_P2;PMS_P1;PMS_P2;Temp;Humidity;BMP_temperature;BMP_pressure;BME280_temperature;BME280_humidity;BME280_pressure;Samples;Min_cycle;Max_cycle;Signal;HPM_P1;HPM_P2
2021/04/23 18:19:41;;;;;;;25.35;4.32;;;;;;;21.27;46.69;99317.84;5074168;28;20344;-63
2021/04/23 18:22:09;;;;;;;27.00;3.80;;;;;;;21.34;46.54;99328.09;5033987;28;303864;-48
2021/04/23 18:24:37;;;;;;;30.25;4.40;;;;;;;21.24;46.29;99329.72;5042036;28;20045;-59
2021/04/23 18:27:06;;;;;;;35.15;3.95;;;;;;;21.27;45.89;99329.50;5050014;28;20040;-46
2021/04/23 18:29:32;;;;;;;31.83;3.97;;;;;;;21.31;46.40;99328.31;5067570;28;20044;-47
2021/04/23 18:31:59;;;;;;;29.20;3.45;;;;;;;21.16;46.44;99325.84;5062418;28;20454;-44
2021/04/23 18:34:26;;;;;;;33.17;3.72;;;;;;;21.05;46.12;99323.03;5065590;28;20074;-37
2021/04/23 18:36:53;;;;;;;36.70;4.20;;;;;;;20.90;46.57;99332.13;5068055;28;20052;-37
2021/04/23 21:18:06;;;;;;;13.48;4.70;;;;;;;25.39;52.74;99555.28;5077649;27;20911;-65
2021/04/23 21:20:32;;;;;;;10.90;4.28;;;;;;;25.74;50.59;99550.47;5070608;28;20051;-60
2021/04/23 21:23:00;;;;;;;30.92;5.50;;;;;;;25.97;50.47;99537.66;5041623;28;20101;-66
2021/04/23 21:25:25;;;;;;;19.27;5.07;;;;;;;26.14;49.32;99547.06;5071388;28;20053;-69
2021/04/23 21:27:51;;;;;;;18.55;14.32;;;;;;;20.96;45.27;99518.63;5072168;28;20079;-68
2021/04/23 21:30:23;;;;;;;21.25;15.75;;;;;;;16.70;52.75;99511.16;5049644;28;20151;-67
2021/04/23 21:32:50;;;;;;;27.03;19.60;;;;;;;13.12;61.99;99506.63;5051719;28;20095;-67
2021/04/23 21:35:52;;;;;;;;;;;;;;;;;;;;;
2021/04/23 21:38:24;;;;;;;31.73;23.52;;;;;;;10.50;70.76;99501.97;5065661;28;20036;-69
2021/04/23 21:40:50;;;;;;;31.50;23.45;;;;;;;10.19;72.16;99501.81;5065894;28;20075;-70
2021/04/23 21:43:16;;;;;;;34.60;24.95;;;;;;;9.83;73.78;99493.75;5083785;28;20180;-72
2021/04/23 21:45:55;;;;;;;31.95;23.90;;;;;;;9.28;75.64;99480.78;5058190;28;20053;-73
2021/04/23 21:48:32;;;;;;;39.95;25.70;;;;;;;9.34;76.16;99486.84;5047892;28;20061;-69
2021/04/23 21:51:25;;;;;;;33.72;25.20;;;;;;;9.23;76.80;99498.53;5064833;28;20522;-73
2021/04/23 21:53:54;;;;;;;34.55;24.13;;;;;;;9.04;77.66;99497.13;5043687;28;20044;-69
2021/04/23 21:56:19;;;;;;;32.13;24.00;;;;;;;9.11;77.56;99480.25;5045914;28;20041;-67
2021/04/23 21:58:45;;;;;;;36.45;23.73;;;;;;;9.06;77.83;99490.91;5041907;28;20072;-72
2021/04/23 22:01:11;;;;;;;33.65;24.13;;;;;;;8.88;78.31;99469.22;5046436;28;20041;-71
2021/04/23 22:03:37;;;;;;;35.42;23.15;;;;;;;8.93;78.04;99476.16;5072811;28;20482;-71
2021/04/23 22:06:04;;;;;;;33.92;22.52;;;;;;;8.85;78.51;99470.16;5031530;28;20416;-71
2021/04/23 22:08:30;;;;;;;33.00;22.02;;;;;;;8.89;78.29;99474.50;5038979;28;20050;-72
2021/04/23 22:10:56;;;;;;;27.30;20.23;;;;;;;8.80;78.87;99479.06;5034982;28;20111;-72
2021/04/23 22:13:23;;;;;;;28.42;19.33;;;;;;;8.49;78.48;99449.66;5068305;28;20048;-72
2021/04/23 22:15:50;;;;;;;31.60;21.13;;;;;;;8.65;78.91;99469.63;5043534;28;20040;-65
2021/04/23 22:18:16;;;;;;;28.98;19.73;;;;;;;8.59;79.08;99453.00;5042952;28;20045;-69
2021/04/23 22:20:42;;;;;;;27.23;18.48;;;;;;;8.54;79.12;99473.34;5044536;28;20040;-65
2021/04/23 22:23:08;;;;;;;26.75;18.33;;;;;;;8.56;78.97;99469.78;5043754;28;20036;-66
2021/04/23 22:25:34;;;;;;;22.52;16.95;;;;;;;8.63;78.06;99466.13;5043718;28;20051;-65
2021/04/23 22:28:01;;;;;;;26.95;16.95;;;;;;;8.51;78.61;99468.97;5053947;28;20045;-66
2021/04/23 22:30:27;;;;;;;23.55;15.10;;;;;;;8.41;78.01;99471.81;5049315;28;20144;-66
2021/04/23 22:32:55;;;;;;;22.85;15.00;;;;;;;8.58;78.11;99465.34;5014906;28;20529;-66
2021/04/23 22:35:25;;;;;;;26.95;15.45;;;;;;;8.54;78.41;99462.75;5013260;28;20095;-67
2021/04/23 22:37:53;;;;;;;22.35;13.88;;;;;;;8.45;78.62;99452.34;5049972;28;20086;-65
2021/04/23 22:40:19;;;;;;;14.95;11.48;;;;;;;8.37;77.70;99448.97;5030692;28;20044;-72
2021/04/23 22:42:46;;;;;;;18.58;12.02;;;;;;;8.41;77.67;99456.84;5047570;28;20051;-70
2021/04/23 22:45:12;;;;;;;15.00;9.45;;;;;;;8.42;77.04;99444.47;5045968;28;20538;-61
2021/04/23 22:47:39;;;;;;;12.07;8.63;;;;;;;8.11;76.46;99436.16;5047694;28;20048;-69
2021/04/23 22:50:08;;;;;;;13.57;9.05;;;;;;;8.35;76.56;99440.22;5051014;28;20878;-66
2021/04/23 22:52:34;;;;;;;14.35;7.85;;;;;;;8.21;76.56;99444.84;5065463;28;20041;-65
2021/04/23 22:55:00;;;;;;;10.48;7.00;;;;;;;8.05;75.61;99422.16;5050602;28;20094;-66
2021/04/23 22:57:32;;;;;;;11.38;6.38;;;;;;;8.01;76.55;99444.22;5067846;28;20051;-67
2021/04/23 23:00:14;;;;;;;12.48;6.75;;;;;;;8.01;76.77;99445.13;5013754;28;20127;-69
2021/04/23 23:02:41;;;;;;;10.85;6.78;;;;;;;8.06;76.40;99438.00;5031404;28;20036;-66
2021/04/23 23:05:07;;;;;;;12.85;6.82;;;;;;;8.17;75.97;99429.91;5048404;28;20045;-68
2021/04/23 23:07:35;;;;;;;12.13;6.80;;;;;;;8.20;75.99;99432.50;5013105;28;20044;-68
2021/04/23 23:10:01;;;;;;;13.00;6.70;;;;;;;7.85;76.70;99405.75;5047096;28;20055;-65
2021/04/23 23:12:27;;;;;;;11.02;7.40;;;;;;;7.93;76.72;99417.06;5041226;28;20049;-64
2021/04/23 23:14:53;;;;;;;11.10;7.68;;;;;;;7.61;78.42;99419.31;5029582;28;20048;-69
2021/04/23 23:17:19;;;;;;;15.65;8.00;;;;;;;7.82;78.06;99416.34;5044793;28;20489;-65
2021/04/23 23:19:45;;;;;;;10.10;7.65;;;;;;;7.81;78.24;99417.25;5030097;28;20045;-70
2021/04/23 23:22:11;;;;;;;10.75;7.28;;;;;;;7.92;77.10;99417.97;5047678;28;20485;-66
2021/04/23 23:24:37;;;;;;;9.80;6.65;;;;;;;7.82;77.06;99427.81;5045177;28;20080;-64
2021/04/23 23:27:03;;;;;;;13.00;6.57;;;;;;;7.79;77.11;99419.06;5045659;28;20072;-64
2021/04/23 23:29:29;;;;;;;9.38;6.32;;;;;;;7.77;77.01;99416.44;5046291;28;20420;-65
2021/04/23 23:31:55;;;;;;;9.80;6.20;;;;;;;7.80;75.51;99423.44;5044571;28;20147;-65
2021/04/23 23:34:21;;;;;;;10.27;6.47;;;;;;;7.89;76.43;99407.47;5045775;28;20051;-68
2021/04/23 23:36:47;;;;;;;12.18;6.68;;;;;;;7.94;75.66;99395.94;5046238;28;20047;-64
2021/04/23 23:39:13;;;;;;;17.80;7.22;;;;;;;7.93;75.32;99415.31;5047684;28;20128;-65
2021/04/23 23:41:40;;;;;;;11.95;6.80;;;;;;;8.12;75.07;99400.91;5044500;28;20045;-65
2021/04/23 23:44:06;;;;;;;11.73;6.97;;;;;;;8.23;76.42;99414.84;5046327;28;20044;-68
2021/04/23 23:46:32;;;;;;;11.95;6.10;;;;;;;8.27;75.38;99402.50;5046471;28;20060;-69
2021/04/23 23:48:58;;;;;;;12.63;6.78;;;;;;;8.20;76.96;99391.09;5046608;28;20091;-67
2021/04/23 23:51:24;;;;;;;14.30;6.13;;;;;;;8.18;75.68;99400.81;5027639;28;20040;-67
2021/04/23 23:53:50;;;;;;;8.27;5.30;;;;;;;8.35;75.46;99397.94;5029596;28;20095;-67
2021/04/23 23:56:16;;;;;;;8.27;5.40;;;;;;;8.46;74.93;99402.13;5046595;28;20082;-70
2021/04/23 23:58:42;;;;;;;12.88;5.45;;;;;;;8.22;74.53;99392.00;5045703;28;20216;-71
